sensor_id;sensor_type;location;lat;lon;timestamp;temperature;humidity
10051;DHT22;5065;46.942;7.432;2023-03-04T00:02:25;5.30;99.90
10051;DHT22;5065;46.942;7.432;2023-03-04T00:04:52;5.30;99.90
10051;DHT22;5065;46.942;7.432;2023-03-04T00:07:21;5.40;99.90
10051;DHT22;5065;46.942;7.432;2023-03-04T00:09:48;5.40;99.90
10051;DHT22;5065;46.942;7.432;2023-03-04T00:12:15;5.40;99.90
10051;DHT22;5065;46.942;7.432;2023-03-04T00:14:42;5.40;99.90
10051;DHT22;5065;46.942;7.432;2023-03-04T00:17:09;5.40;99.90
10051;DHT22;5065;46.942;7.432;2023-03-04T00:19:37;5.30;99.90
10051;DHT22;5065;46.942;7.432;2023-03-04T00:22:04;5.30;99.90
10051;DHT22;5065;46.942;7.432;2023-03-04T00:24:33;5.40;99.90
10051;DHT22;5065;46.942;7.432;2023-03-04T00:27:01;5.30;99.90
10051;DHT22;5065;46.942;7.432;2023-03-04T00:29:28;5.30;99.90
10051;DHT22;5065;46.942;7.432;2023-03-04T00:31:55;5.30;99.90
10051;DHT22;5065;46.942;7.432;2023-03-04T00:34:22;5.30;99.90
10051;DHT22;5065;46.942;7.432;2023-03-04T00:36:49;5.40;99.90
10051;DHT22;5065;46.942;7.432;2023-03-04T00:39:16;5.30;99.90
10051;DHT22;5065;46.942;7.432;2023-03-04T00:41:45;5.40;99.90
10051;DHT22;5065;46.942;7.432;2023-03-04T00:44:12;5.40;99.90
10051;DHT22;5065;46.942;7.432;2023-03-04T00:46:39;5.40;99.90
10051;DHT22;5065;46.942;7.432;2023-03-04T00:49:06;5.40;99.90
10051;DHT22;5065;46.942;7.432;2023-03-04T00:51:33;5.40;99.90
10051;DHT22;5065;46.942;7.432;2023-03-04T00:54:01;5.40;99.90
10051;DHT22;5065;46.942;7.432;2023-03-04T00:56:28;5.40;99.90
10051;DHT22;5065;46.942;7.432;2023-03-04T00:58:56;5.40;99.90
10051;DHT22;5065;46.942;7.432;2023-03-04T01:01:23;5.40;99.90
10051;DHT22;5065;46.942;7.432;2023-03-04T01:03:50;5.40;99.90
10051;DHT22;5065;46.942;7.432;2023-03-04T01:06:18;5.40;99.90
10051;DHT22;5065;46.942;7.432;2023-03-04T01:08:45;5.40;99.90
10051;DHT22;5065;46.942;7.432;2023-03-04T01:11:12;5.50;99.90
10051;DHT22;5065;46.942;7.432;2023-03-04T01:13:39;5.40;99.90
10051;DHT22;5065;46.942;7.432;2023-03-04T01:16:08;5.40;99.90
10051;DHT22;5065;46.942;7.432;2023-03-04T01:18:36;5.40;99.90
10051;DHT22;5065;46.942;7.432;2023-03-04T01:21:03;5.30;99.90
10051;DHT22;5065;46.942;7.432;2023-03-04T01:23:30;5.30;99.90
10051;DHT22;5065;46.942;7.432;2023-03-04T01:25:58;5.40;99.90
10051;DHT22;5065;46.942;7.432;2023-03-04T01:28:25;5.40;99.90
10051;DHT22;5065;46.942;7.432;2023-03-04T01:30:52;5.40;99.90
10051;DHT22;5065;46.942;7.432;2023-03-04T01:33:20;5.30;99.90
10051;DHT22;5065;46.942;7.432;2023-03-04T01:35:48;5.30;99.90
10051;DHT22;5065;46.942;7.432;2023-03-04T01:38:15;5.30;99.90
10051;DHT22;5065;46.942;7.432;2023-03-04T01:40:42;5.30;99.90
10051;DHT22;5065;46.942;7.432;2023-03-04T01:43:15;5.30;99.90
10051;DHT22;5065;46.942;7.432;2023-03-04T01:45:44;5.40;99.90
10051;DHT22;5065;46.942;7.432;2023-03-04T01:48:15;5.40;99.90
10051;DHT22;5065;46.942;7.432;2023-03-04T01:50:45;5.40;99.90
10051;DHT22;5065;46.942;7.432;2023-03-04T01:53:19;5.40;99.90
10051;DHT22;5065;46.942;7.432;2023-03-04T01:55:46;5.40;99.90
10051;DHT22;5065;46.942;7.432;2023-03-04T01:58:14;5.50;99.90
10051;DHT22;5065;46.942;7.432;2023-03-04T02:00:41;5.40;99.90
10051;DHT22;5065;46.942;7.432;2023-03-04T02:03:10;5.40;99.90
10051;DHT22;5065;46.942;7.432;2023-03-04T02:05:41;5.40;99.90
10051;DHT22;5065;46.942;7.432;2023-03-04T02:08:11;5.40;99.90
10051;DHT22;5065;46.942;7.432;2023-03-04T02:10:40;5.40;99.90
10051;DHT22;5065;46.942;7.432;2023-03-04T02:13:08;5.30;99.90
10051;DHT22;5065;46.942;7.432;2023-03-04T02:15:35;5.30;99.90
10051;DHT22;5065;46.942;7.432;2023-03-04T02:18:09;5.30;99.90
10051;DHT22;5065;46.942;7.432;2023-03-04T02:20:46;5.30;99.90
10051;DHT22;5065;46.942;7.432;2023-03-04T02:23:19;5.30;99.90
10051;DHT22;5065;46.942;7.432;2023-03-04T02:25:51;5.30;99.90
10051;DHT22;5065;46.942;7.432;2023-03-04T02:28:22;5.30;99.90
10051;DHT22;5065;46.942;7.432;2023-03-04T02:30:49;5.30;99.90
10051;DHT22;5065;46.942;7.432;2023-03-04T02:33:17;5.30;99.90
10051;DHT22;5065;46.942;7.432;2023-03-04T02:35:45;5.30;99.90
10051;DHT22;5065;46.942;7.432;2023-03-04T02:38:13;5.20;99.90
10051;DHT22;5065;46.942;7.432;2023-03-04T02:40:42;5.20;99.90
10051;DHT22;5065;46.942;7.432;2023-03-04T02:43:12;5.10;99.90
10051;DHT22;5065;46.942;7.432;2023-03-04T02:45:43;5.10;99.90
10051;DHT22;5065;46.942;7.432;2023-03-04T02:48:12;5.10;99.90
10051;DHT22;5065;46.942;7.432;2023-03-04T02:50:41;5.10;99.90
10051;DHT22;5065;46.942;7.432;2023-03-04T02:53:09;5.00;99.90
10051;DHT22;5065;46.942;7.432;2023-03-04T02:55:36;5.00;99.90
10051;DHT22;5065;46.942;7.432;2023-03-04T02:58:04;5.00;99.90
10051;DHT22;5065;46.942;7.432;2023-03-04T03:00:31;4.90;99.90
10051;DHT22;5065;46.942;7.432;2023-03-04T03:02:59;4.90;99.90
10051;DHT22;5065;46.942;7.432;2023-03-04T03:05:29;4.90;99.90
10051;DHT22;5065;46.942;7.432;2023-03-04T03:07:58;4.90;99.90
10051;DHT22;5065;46.942;7.432;2023-03-04T03:10:25;4.90;99.90
10051;DHT22;5065;46.942;7.432;2023-03-04T03:12:53;4.80;99.90
10051;DHT22;5065;46.942;7.432;2023-03-04T03:15:20;4.80;99.90
10051;DHT22;5065;46.942;7.432;2023-03-04T03:17:47;4.80;99.90
10051;DHT22;5065;46.942;7.432;2023-03-04T03:20:16;4.80;99.90
10051;DHT22;5065;46.942;7.432;2023-03-04T03:22:44;4.80;99.90
10051;DHT22;5065;46.942;7.432;2023-03-04T03:25:13;4.80;99.90
10051;DHT22;5065;46.942;7.432;2023-03-04T03:27:40;4.80;99.90
10051;DHT22;5065;46.942;7.432;2023-03-04T03:30:10;4.70;99.90
10051;DHT22;5065;46.942;7.432;2023-03-04T03:32:38;4.80;99.90
10051;DHT22;5065;46.942;7.432;2023-03-04T03:35:05;4.70;99.90
10051;DHT22;5065;46.942;7.432;2023-03-04T03:37:34;4.70;99.90
10051;DHT22;5065;46.942;7.432;2023-03-04T03:40:01;4.70;99.90
10051;DHT22;5065;46.942;7.432;2023-03-04T03:42:28;4.70;99.90
10051;DHT22;5065;46.942;7.432;2023-03-04T03:44:55;4.70;99.90
10051;DHT22;5065;46.942;7.432;2023-03-04T03:47:23;4.70;99.90
10051;DHT22;5065;46.942;7.432;2023-03-04T03:49:50;4.70;99.90
10051;DHT22;5065;46.942;7.432;2023-03-04T03:52:17;4.70;99.90
10051;DHT22;5065;46.942;7.432;2023-03-04T03:54:45;4.70;99.90
10051;DHT22;5065;46.942;7.432;2023-03-04T03:57:12;4.60;99.90
10051;DHT22;5065;46.942;7.432;2023-03-04T03:59:40;4.60;99.90
10051;DHT22;5065;46.942;7.432;2023-03-04T04:02:07;4.60;99.90
10051;DHT22;5065;46.942;7.432;2023-03-04T04:04:34;4.60;99.90
10051;DHT22;5065;46.942;7.432;2023-03-04T04:07:01;4.60;99.90
10051;DHT22;5065;46.942;7.432;2023-03-04T04:09:28;4.50;99.90
10051;DHT22;5065;46.942;7.432;2023-03-04T04:11:57;4.50;99.90
10051;DHT22;5065;46.942;7.432;2023-03-04T04:14:24;4.50;99.90
10051;DHT22;5065;46.942;7.432;2023-03-04T04:16:51;4.50;99.90
10051;DHT22;5065;46.942;7.432;2023-03-04T04:19:19;4.50;99.90
10051;DHT22;5065;46.942;7.432;2023-03-04T04:21:47;4.50;99.90
10051;DHT22;5065;46.942;7.432;2023-03-04T04:24:14;4.50;99.90
10051;DHT22;5065;46.942;7.432;2023-03-04T04:26:42;4.50;99.90
10051;DHT22;5065;46.942;7.432;2023-03-04T04:29:12;4.50;99.90
10051;DHT22;5065;46.942;7.432;2023-03-04T04:31:40;4.60;99.90
10051;DHT22;5065;46.942;7.432;2023-03-04T04:34:07;4.60;99.90
10051;DHT22;5065;46.942;7.432;2023-03-04T04:36:35;4.60;99.90
10051;DHT22;5065;46.942;7.432;2023-03-04T04:39:02;4.60;99.90
10051;DHT22;5065;46.942;7.432;2023-03-04T04:41:34;4.60;99.90
10051;DHT22;5065;46.942;7.432;2023-03-04T04:44:01;4.50;99.90
10051;DHT22;5065;46.942;7.432;2023-03-04T04:46:30;4.60;99.90
10051;DHT22;5065;46.942;7.432;2023-03-04T04:48:57;4.50;99.90
10051;DHT22;5065;46.942;7.432;2023-03-04T04:51:25;4.60;99.90
10051;DHT22;5065;46.942;7.432;2023-03-04T04:53:52;4.60;99.90
10051;DHT22;5065;46.942;7.432;2023-03-04T04:56:21;4.60;99.90
10051;DHT22;5065;46.942;7.432;2023-03-04T04:58:49;4.60;99.90
10051;DHT22;5065;46.942;7.432;2023-03-04T05:01:16;4.60;99.90
10051;DHT22;5065;46.942;7.432;2023-03-04T05:03:45;4.60;99.90
10051;DHT22;5065;46.942;7.432;2023-03-04T05:06:14;4.60;99.90
10051;DHT22;5065;46.942;7.432;2023-03-04T05:08:42;4.60;99.90
10051;DHT22;5065;46.942;7.432;2023-03-04T05:11:09;4.60;99.90
10051;DHT22;5065;46.942;7.432;2023-03-04T05:13:36;4.60;99.90
10051;DHT22;5065;46.942;7.432;2023-03-04T05:16:04;4.60;99.90
10051;DHT22;5065;46.942;7.432;2023-03-04T05:18:32;4.60;99.90
10051;DHT22;5065;46.942;7.432;2023-03-04T05:21:01;4.60;99.90
10051;DHT22;5065;46.942;7.432;2023-03-04T05:23:30;4.60;99.90
10051;DHT22;5065;46.942;7.432;2023-03-04T05:25:58;4.60;99.90
10051;DHT22;5065;46.942;7.432;2023-03-04T05:28:25;4.60;99.90
10051;DHT22;5065;46.942;7.432;2023-03-04T05:30:52;4.60;99.90
10051;DHT22;5065;46.942;7.432;2023-03-04T05:33:20;4.50;99.90
10051;DHT22;5065;46.942;7.432;2023-03-04T05:35:48;4.50;99.90
10051;DHT22;5065;46.942;7.432;2023-03-04T05:38:18;4.50;99.90
10051;DHT22;5065;46.942;7.432;2023-03-04T05:40:46;4.50;99.90
10051;DHT22;5065;46.942;7.432;2023-03-04T05:43:13;4.50;99.90
10051;DHT22;5065;46.942;7.432;2023-03-04T05:45:42;4.50;99.90
10051;DHT22;5065;46.942;7.432;2023-03-04T05:48:09;4.50;99.90
10051;DHT22;5065;46.942;7.432;2023-03-04T05:50:36;4.50;99.90
10051;DHT22;5065;46.942;7.432;2023-03-04T05:53:04;4.50;99.90
10051;DHT22;5065;46.942;7.432;2023-03-04T05:55:32;4.50;99.90
10051;DHT22;5065;46.942;7.432;2023-03-04T05:57:59;4.40;99.90
10051;DHT22;5065;46.942;7.432;2023-03-04T06:00:27;4.50;99.90
10051;DHT22;5065;46.942;7.432;2023-03-04T06:02:54;4.50;99.90
10051;DHT22;5065;46.942;7.432;2023-03-04T06:05:21;4.40;99.90
10051;DHT22;5065;46.942;7.432;2023-03-04T06:07:48;4.40;99.90
10051;DHT22;5065;46.942;7.432;2023-03-04T06:10:17;4.30;99.90
10051;DHT22;5065;46.942;7.432;2023-03-04T06:12:45;4.40;99.90
10051;DHT22;5065;46.942;7.432;2023-03-04T06:15:13;4.30;99.90
10051;DHT22;5065;46.942;7.432;2023-03-04T06:17:40;4.30;99.90
10051;DHT22;5065;46.942;7.432;2023-03-04T06:20:10;4.30;99.90
10051;DHT22;5065;46.942;7.432;2023-03-04T06:22:37;4.30;99.90
10051;DHT22;5065;46.942;7.432;2023-03-04T06:25:06;4.30;99.90
10051;DHT22;5065;46.942;7.432;2023-03-04T06:27:33;4.30;99.90
10051;DHT22;5065;46.942;7.432;2023-03-04T06:30:02;4.30;99.90
10051;DHT22;5065;46.942;7.432;2023-03-04T06:32:29;4.30;99.90
10051;DHT22;5065;46.942;7.432;2023-03-04T06:34:56;4.30;99.90
10051;DHT22;5065;46.942;7.432;2023-03-04T06:37:23;4.30;99.90
10051;DHT22;5065;46.942;7.432;2023-03-04T06:39:50;4.30;99.90
10051;DHT22;5065;46.942;7.432;2023-03-04T06:42:17;4.40;99.90
10051;DHT22;5065;46.942;7.432;2023-03-04T06:44:45;4.40;99.90
10051;DHT22;5065;46.942;7.432;2023-03-04T06:47:13;4.40;99.90
10051;DHT22;5065;46.942;7.432;2023-03-04T06:49:43;4.50;99.90
10051;DHT22;5065;46.942;7.432;2023-03-04T06:52:10;4.50;99.90
10051;DHT22;5065;46.942;7.432;2023-03-04T06:54:37;4.50;99.90
10051;DHT22;5065;46.942;7.432;2023-03-04T06:57:05;4.40;99.90
10051;DHT22;5065;46.942;7.432;2023-03-04T06:59:32;4.30;99.90
10051;DHT22;5065;46.942;7.432;2023-03-04T07:01:59;4.30;99.90
10051;DHT22;5065;46.942;7.432;2023-03-04T07:04:29;4.30;99.90
10051;DHT22;5065;46.942;7.432;2023-03-04T07:06:57;4.30;99.90
10051;DHT22;5065;46.942;7.432;2023-03-04T07:09:24;4.40;99.90
10051;DHT22;5065;46.942;7.432;2023-03-04T07:11:51;4.50;99.90
10051;DHT22;5065;46.942;7.432;2023-03-04T07:14:18;4.60;99.90
10051;DHT22;5065;46.942;7.432;2023-03-04T07:16:46;4.60;99.90
10051;DHT22;5065;46.942;7.432;2023-03-04T07:19:13;4.70;99.90
10051;DHT22;5065;46.942;7.432;2023-03-04T07:21:42;4.70;99.90
10051;DHT22;5065;46.942;7.432;2023-03-04T07:24:09;4.80;99.90
10051;DHT22;5065;46.942;7.432;2023-03-04T07:26:36;4.80;99.90
10051;DHT22;5065;46.942;7.432;2023-03-04T07:29:04;4.80;99.90
10051;DHT22;5065;46.942;7.432;2023-03-04T07:31:32;4.80;99.90
10051;DHT22;5065;46.942;7.432;2023-03-04T07:34:02;4.90;99.90
10051;DHT22;5065;46.942;7.432;2023-03-04T07:36:29;4.90;99.90
10051;DHT22;5065;46.942;7.432;2023-03-04T07:38:58;5.00;99.90
10051;DHT22;5065;46.942;7.432;2023-03-04T07:41:27;5.00;99.90
10051;DHT22;5065;46.942;7.432;2023-03-04T07:43:55;5.20;99.90
10051;DHT22;5065;46.942;7.432;2023-03-04T07:46:23;5.20;99.90
10051;DHT22;5065;46.942;7.432;2023-03-04T07:48:50;5.30;99.90
10051;DHT22;5065;46.942;7.432;2023-03-04T07:51:19;5.40;99.90
10051;DHT22;5065;46.942;7.432;2023-03-04T07:53:48;5.40;99.90
10051;DHT22;5065;46.942;7.432;2023-03-04T07:56:20;5.50;99.90
10051;DHT22;5065;46.942;7.432;2023-03-04T07:58:48;5.60;99.90
10051;DHT22;5065;46.942;7.432;2023-03-04T08:01:19;5.80;99.90
10051;DHT22;5065;46.942;7.432;2023-03-04T08:03:47;6.00;99.90
10051;DHT22;5065;46.942;7.432;2023-03-04T08:06:15;6.60;99.90
10051;DHT22;5065;46.942;7.432;2023-03-04T08:08:43;7.30;99.90
10051;DHT22;5065;46.942;7.432;2023-03-04T08:11:12;7.70;99.90
10051;DHT22;5065;46.942;7.432;2023-03-04T08:13:43;8.30;99.90
10051;DHT22;5065;46.942;7.432;2023-03-04T08:16:11;8.90;99.90
10051;DHT22;5065;46.942;7.432;2023-03-04T08:18:40;9.60;99.90
10051;DHT22;5065;46.942;7.432;2023-03-04T08:21:09;10.30;99.90
10051;DHT22;5065;46.942;7.432;2023-03-04T08:23:37;11.00;99.90
10051;DHT22;5065;46.942;7.432;2023-03-04T08:26:06;11.60;99.90
10051;DHT22;5065;46.942;7.432;2023-03-04T08:28:34;12.10;99.90
10051;DHT22;5065;46.942;7.432;2023-03-04T08:31:05;12.60;99.90
10051;DHT22;5065;46.942;7.432;2023-03-04T08:33:32;13.10;99.90
10051;DHT22;5065;46.942;7.432;2023-03-04T08:35:59;13.50;99.90
10051;DHT22;5065;46.942;7.432;2023-03-04T08:38:27;13.90;99.90
10051;DHT22;5065;46.942;7.432;2023-03-04T08:40:55;14.20;99.90
10051;DHT22;5065;46.942;7.432;2023-03-04T08:43:22;14.60;99.90
10051;DHT22;5065;46.942;7.432;2023-03-04T08:45:49;15.00;99.90
10051;DHT22;5065;46.942;7.432;2023-03-04T08:48:18;15.40;99.90
10051;DHT22;5065;46.942;7.432;2023-03-04T08:50:46;15.70;99.90
10051;DHT22;5065;46.942;7.432;2023-03-04T08:53:15;15.90;99.90
10051;DHT22;5065;46.942;7.432;2023-03-04T08:55:43;16.10;99.90
10051;DHT22;5065;46.942;7.432;2023-03-04T08:58:10;16.40;99.90
10051;DHT22;5065;46.942;7.432;2023-03-04T09:00:39;16.50;96.40
10051;DHT22;5065;46.942;7.432;2023-03-04T09:03:07;16.20;95.60
10051;DHT22;5065;46.942;7.432;2023-03-04T09:05:36;15.90;95.30
10051;DHT22;5065;46.942;7.432;2023-03-04T09:08:03;15.40;96.00
10051;DHT22;5065;46.942;7.432;2023-03-04T09:10:31;15.10;96.20
10051;DHT22;5065;46.942;7.432;2023-03-04T09:12:58;14.70;99.40
10051;DHT22;5065;46.942;7.432;2023-03-04T09:15:26;14.40;99.90
10051;DHT22;5065;46.942;7.432;2023-03-04T09:17:54;14.20;99.90
10051;DHT22;5065;46.942;7.432;2023-03-04T09:20:21;14.10;99.90
10051;DHT22;5065;46.942;7.432;2023-03-04T09:22:49;14.10;99.90
10051;DHT22;5065;46.942;7.432;2023-03-04T09:25:16;14.10;99.90
10051;DHT22;5065;46.942;7.432;2023-03-04T09:27:43;13.90;99.80
10051;DHT22;5065;46.942;7.432;2023-03-04T09:30:12;13.80;99.60
10051;DHT22;5065;46.942;7.432;2023-03-04T09:32:40;13.70;98.50
10051;DHT22;5065;46.942;7.432;2023-03-04T09:35:07;13.50;98.80
10051;DHT22;5065;46.942;7.432;2023-03-04T09:37:35;13.30;98.20
10051;DHT22;5065;46.942;7.432;2023-03-04T09:40:05;13.00;99.30
10051;DHT22;5065;46.942;7.432;2023-03-04T09:42:36;12.90;99.40
10051;DHT22;5065;46.942;7.432;2023-03-04T09:45:06;12.80;99.90
10051;DHT22;5065;46.942;7.432;2023-03-04T09:47:35;12.90;99.90
10051;DHT22;5065;46.942;7.432;2023-03-04T09:50:07;12.90;99.90
10051;DHT22;5065;46.942;7.432;2023-03-04T09:52:43;12.80;99.70
10051;DHT22;5065;46.942;7.432;2023-03-04T09:55:21;12.60;99.60
10051;DHT22;5065;46.942;7.432;2023-03-04T09:57:52;12.50;99.90
10051;DHT22;5065;46.942;7.432;2023-03-04T10:00:30;12.40;99.90
10051;DHT22;5065;46.942;7.432;2023-03-04T10:03:10;12.40;99.90
10051;DHT22;5065;46.942;7.432;2023-03-04T10:05:41;12.40;99.90
10051;DHT22;5065;46.942;7.432;2023-03-04T10:08:40;12.10;99.90
10051;DHT22;5065;46.942;7.432;2023-03-04T10:11:14;11.90;99.90
10051;DHT22;5065;46.942;7.432;2023-03-04T10:13:58;11.90;99.90
10051;DHT22;5065;46.942;7.432;2023-03-04T10:16:32;11.90;99.90
10051;DHT22;5065;46.942;7.432;2023-03-04T10:19:20;11.90;99.90
10051;DHT22;5065;46.942;7.432;2023-03-04T10:21:50;12.00;99.90
10051;DHT22;5065;46.942;7.432;2023-03-04T10:24:19;12.00;99.90
10051;DHT22;5065;46.942;7.432;2023-03-04T10:26:52;12.00;99.90
10051;DHT22;5065;46.942;7.432;2023-03-04T10:29:21;11.90;99.90
10051;DHT22;5065;46.942;7.432;2023-03-04T10:31:49;12.00;99.90
10051;DHT22;5065;46.942;7.432;2023-03-04T10:34:20;11.80;99.90
10051;DHT22;5065;46.942;7.432;2023-03-04T10:36:54;11.80;99.90
10051;DHT22;5065;46.942;7.432;2023-03-04T10:39:26;11.90;99.90
10051;DHT22;5065;46.942;7.432;2023-03-04T10:41:58;11.90;99.90
10051;DHT22;5065;46.942;7.432;2023-03-04T10:44:26;12.10;99.90
10051;DHT22;5065;46.942;7.432;2023-03-04T10:46:55;12.10;99.90
10051;DHT22;5065;46.942;7.432;2023-03-04T10:49:23;12.10;99.90
10051;DHT22;5065;46.942;7.432;2023-03-04T10:51:53;11.90;99.90
10051;DHT22;5065;46.942;7.432;2023-03-04T10:54:26;11.70;99.90
10051;DHT22;5065;46.942;7.432;2023-03-04T10:56:58;11.60;99.90
10051;DHT22;5065;46.942;7.432;2023-03-04T10:59:38;11.60;99.90
10051;DHT22;5065;46.942;7.432;2023-03-04T11:02:19;11.60;99.90
10051;DHT22;5065;46.942;7.432;2023-03-04T11:04:52;11.60;99.90
10051;DHT22;5065;46.942;7.432;2023-03-04T11:07:21;11.50;99.90
10051;DHT22;5065;46.942;7.432;2023-03-04T11:09:49;11.50;99.90
10051;DHT22;5065;46.942;7.432;2023-03-04T11:12:20;11.60;99.90
10051;DHT22;5065;46.942;7.432;2023-03-04T11:14:48;11.40;99.90
10051;DHT22;5065;46.942;7.432;2023-03-04T11:17:19;11.40;99.90
10051;DHT22;5065;46.942;7.432;2023-03-04T11:19:49;11.40;99.90
10051;DHT22;5065;46.942;7.432;2023-03-04T11:22:19;11.40;99.90
10051;DHT22;5065;46.942;7.432;2023-03-04T11:24:55;11.50;99.90
10051;DHT22;5065;46.942;7.432;2023-03-04T11:27:33;11.60;99.90
10051;DHT22;5065;46.942;7.432;2023-03-04T11:30:24;11.60;99.90
10051;DHT22;5065;46.942;7.432;2023-03-04T11:32:58;11.80;99.90
10051;DHT22;5065;46.942;7.432;2023-03-04T11:35:31;11.90;99.90
10051;DHT22;5065;46.942;7.432;2023-03-04T11:38:04;11.90;99.90
10051;DHT22;5065;46.942;7.432;2023-03-04T11:40:37;12.00;99.90
10051;DHT22;5065;46.942;7.432;2023-03-04T11:43:11;12.10;99.90
10051;DHT22;5065;46.942;7.432;2023-03-04T11:45:56;12.10;99.90
10051;DHT22;5065;46.942;7.432;2023-03-04T11:48:39;12.10;99.90
10051;DHT22;5065;46.942;7.432;2023-03-04T11:51:12;12.10;99.90
10051;DHT22;5065;46.942;7.432;2023-03-04T11:53:53;12.20;99.90
10051;DHT22;5065;46.942;7.432;2023-03-04T11:56:31;12.20;99.90
10051;DHT22;5065;46.942;7.432;2023-03-04T11:59:23;12.20;99.90
10051;DHT22;5065;46.942;7.432;2023-03-04T12:02:02;12.10;99.70
10051;DHT22;5065;46.942;7.432;2023-03-04T12:04:55;11.90;99.90
10051;DHT22;5065;46.942;7.432;2023-03-04T12:07:45;11.80;99.90
10051;DHT22;5065;46.942;7.432;2023-03-04T12:10:23;12.00;99.90
10051;DHT22;5065;46.942;7.432;2023-03-04T12:13:08;12.20;99.90
10051;DHT22;5065;46.942;7.432;2023-03-04T12:15:46;12.20;99.30
10051;DHT22;5065;46.942;7.432;2023-03-04T12:21:20;12.10;99.30
10051;DHT22;5065;46.942;7.432;2023-03-04T12:24:25;12.20;99.10
10051;DHT22;5065;46.942;7.432;2023-03-04T12:27:00;12.10;97.60
10051;DHT22;5065;46.942;7.432;2023-03-04T12:29:39;12.00;98.60
10051;DHT22;5065;46.942;7.432;2023-03-04T12:32:16;12.00;97.90
10051;DHT22;5065;46.942;7.432;2023-03-04T12:35:02;12.00;98.50
10051;DHT22;5065;46.942;7.432;2023-03-04T12:37:43;12.00;96.90
10051;DHT22;5065;46.942;7.432;2023-03-04T12:40:25;11.90;97.90
10051;DHT22;5065;46.942;7.432;2023-03-04T12:43:06;12.00;98.30
10051;DHT22;5065;46.942;7.432;2023-03-04T12:45:42;12.00;98.80
10051;DHT22;5065;46.942;7.432;2023-03-04T12:48:22;12.10;99.60
10051;DHT22;5065;46.942;7.432;2023-03-04T12:51:14;12.20;99.90
10051;DHT22;5065;46.942;7.432;2023-03-04T12:53:52;12.20;99.90
10051;DHT22;5065;46.942;7.432;2023-03-04T12:56:25;12.10;98.30
10051;DHT22;5065;46.942;7.432;2023-03-04T12:58:56;12.00;98.80
10051;DHT22;5065;46.942;7.432;2023-03-04T13:01:26;12.00;99.90
10051;DHT22;5065;46.942;7.432;2023-03-04T13:04:02;12.00;99.90
10051;DHT22;5065;46.942;7.432;2023-03-04T13:06:38;12.00;99.90
10051;DHT22;5065;46.942;7.432;2023-03-04T13:09:14;12.00;99.90
10051;DHT22;5065;46.942;7.432;2023-03-04T13:11:50;11.90;99.90
10051;DHT22;5065;46.942;7.432;2023-03-04T13:14:31;12.00;99.90
10051;DHT22;5065;46.942;7.432;2023-03-04T13:17:01;11.90;98.70
10051;DHT22;5065;46.942;7.432;2023-03-04T13:19:44;12.00;98.70
10051;DHT22;5065;46.942;7.432;2023-03-04T13:22:41;11.90;99.40
10051;DHT22;5065;46.942;7.432;2023-03-04T13:25:30;11.90;97.90
10051;DHT22;5065;46.942;7.432;2023-03-04T13:28:22;11.80;98.20
10051;DHT22;5065;46.942;7.432;2023-03-04T13:31:14;11.80;98.50
10051;DHT22;5065;46.942;7.432;2023-03-04T13:34:00;11.80;99.90
10051;DHT22;5065;46.942;7.432;2023-03-04T13:39:29;11.70;99.60
10051;DHT22;5065;46.942;7.432;2023-03-04T13:41:57;11.70;99.90
10051;DHT22;5065;46.942;7.432;2023-03-04T13:44:55;11.80;99.90
10051;DHT22;5065;46.942;7.432;2023-03-04T13:50:39;11.70;98.70
10051;DHT22;5065;46.942;7.432;2023-03-04T13:53:36;11.70;99.40
10051;DHT22;5065;46.942;7.432;2023-03-04T13:59:20;11.70;99.90
10051;DHT22;5065;46.942;7.432;2023-03-04T14:01:56;11.70;99.90
10051;DHT22;5065;46.942;7.432;2023-03-04T14:04:28;11.50;99.00
10051;DHT22;5065;46.942;7.432;2023-03-04T14:06:57;11.50;99.60
10051;DHT22;5065;46.942;7.432;2023-03-04T14:09:28;11.50;99.90
10051;DHT22;5065;46.942;7.432;2023-03-04T14:11:57;11.50;99.90
10051;DHT22;5065;46.942;7.432;2023-03-04T14:14:29;11.50;99.20
10051;DHT22;5065;46.942;7.432;2023-03-04T14:17:00;11.60;99.90
10051;DHT22;5065;46.942;7.432;2023-03-04T14:19:29;11.70;99.90
10051;DHT22;5065;46.942;7.432;2023-03-04T14:21:59;11.70;99.90
10051;DHT22;5065;46.942;7.432;2023-03-04T14:24:28;11.70;99.90
10051;DHT22;5065;46.942;7.432;2023-03-04T14:27:11;11.70;99.90
10051;DHT22;5065;46.942;7.432;2023-03-04T14:29:39;11.60;99.90
10051;DHT22;5065;46.942;7.432;2023-03-04T14:32:06;11.60;99.90
10051;DHT22;5065;46.942;7.432;2023-03-04T14:34:36;11.60;99.90
10051;DHT22;5065;46.942;7.432;2023-03-04T14:37:19;11.60;99.90
10051;DHT22;5065;46.942;7.432;2023-03-04T14:39:51;11.60;99.90
10051;DHT22;5065;46.942;7.432;2023-03-04T14:42:20;11.70;99.90
10051;DHT22;5065;46.942;7.432;2023-03-04T14:44:50;11.60;99.90
10051;DHT22;5065;46.942;7.432;2023-03-04T14:47:19;11.60;99.90
10051;DHT22;5065;46.942;7.432;2023-03-04T14:49:48;11.60;99.90
10051;DHT22;5065;46.942;7.432;2023-03-04T14:52:32;11.60;99.90
10051;DHT22;5065;46.942;7.432;2023-03-04T14:55:08;11.50;99.90
10051;DHT22;5065;46.942;7.432;2023-03-04T14:57:43;11.40;99.90
10051;DHT22;5065;46.942;7.432;2023-03-04T15:00:16;11.40;99.90
10051;DHT22;5065;46.942;7.432;2023-03-04T15:02:47;11.40;99.90
10051;DHT22;5065;46.942;7.432;2023-03-04T15:05:17;11.40;99.90
10051;DHT22;5065;46.942;7.432;2023-03-04T15:07:50;11.40;99.90
10051;DHT22;5065;46.942;7.432;2023-03-04T15:10:22;11.30;99.90
10051;DHT22;5065;46.942;7.432;2023-03-04T15:12:51;11.30;99.90
10051;DHT22;5065;46.942;7.432;2023-03-04T15:15:37;11.30;99.90
10051;DHT22;5065;46.942;7.432;2023-03-04T15:18:21;11.30;99.90
10051;DHT22;5065;46.942;7.432;2023-03-04T15:20:59;11.30;99.90
10051;DHT22;5065;46.942;7.432;2023-03-04T15:23:28;11.30;99.90
10051;DHT22;5065;46.942;7.432;2023-03-04T15:25:59;11.30;99.90
10051;DHT22;5065;46.942;7.432;2023-03-04T15:28:29;11.30;99.90
10051;DHT22;5065;46.942;7.432;2023-03-04T15:30:57;11.30;99.90
10051;DHT22;5065;46.942;7.432;2023-03-04T15:33:25;11.30;99.90
10051;DHT22;5065;46.942;7.432;2023-03-04T15:35:54;11.30;99.90
10051;DHT22;5065;46.942;7.432;2023-03-04T15:38:22;11.20;99.90
10051;DHT22;5065;46.942;7.432;2023-03-04T15:40:50;11.20;99.90
10051;DHT22;5065;46.942;7.432;2023-03-04T15:43:20;11.10;99.90
10051;DHT22;5065;46.942;7.432;2023-03-04T15:45:48;11.10;99.90
10051;DHT22;5065;46.942;7.432;2023-03-04T15:48:17;11.10;99.90
10051;DHT22;5065;46.942;7.432;2023-03-04T15:50:48;11.10;99.90
10051;DHT22;5065;46.942;7.432;2023-03-04T15:53:22;11.10;99.90
10051;DHT22;5065;46.942;7.432;2023-03-04T15:55:51;11.10;99.90
10051;DHT22;5065;46.942;7.432;2023-03-04T15:58:20;11.00;99.90
10051;DHT22;5065;46.942;7.432;2023-03-04T16:00:47;11.00;99.90
10051;DHT22;5065;46.942;7.432;2023-03-04T16:03:16;11.00;99.90
10051;DHT22;5065;46.942;7.432;2023-03-04T16:05:45;11.00;99.90
10051;DHT22;5065;46.942;7.432;2023-03-04T16:08:14;11.00;99.90
10051;DHT22;5065;46.942;7.432;2023-03-04T16:10:42;11.00;99.90
10051;DHT22;5065;46.942;7.432;2023-03-04T16:13:12;11.00;99.90
10051;DHT22;5065;46.942;7.432;2023-03-04T16:15:42;10.90;99.90
10051;DHT22;5065;46.942;7.432;2023-03-04T16:18:10;10.90;99.90
10051;DHT22;5065;46.942;7.432;2023-03-04T16:20:39;10.80;99.90
10051;DHT22;5065;46.942;7.432;2023-03-04T16:23:12;10.80;99.90
10051;DHT22;5065;46.942;7.432;2023-03-04T16:25:42;10.80;99.90
10051;DHT22;5065;46.942;7.432;2023-03-04T16:28:10;10.80;99.90
10051;DHT22;5065;46.942;7.432;2023-03-04T16:30:38;10.70;99.90